sensor_id;sensor_type;location;lat;lon;timestamp;P1;durP1;ratioP1;P2;durP2;ratioP2
76548;SDS011;65391;52.068;4.542;2024-01-25T00:01:20;17;;;4.3;;
76548;SDS011;65391;52.068;4.542;2024-01-25T00:03:45;14.5;;;4.9;;
76548;SDS011;65391;52.068;4.542;2024-01-25T00:06:10;14.5;;;4.9;;
76548;SDS011;65391;52.068;4.542;2024-01-25T00:08:35;14.5;;;4.9;;
76548;SDS011;65391;52.068;4.542;2024-01-25T00:11:01;14.5;;;4.9;;
76548;SDS011;65391;52.068;4.542;2024-01-25T00:13:25;18.7;;;5.2;;
76548;SDS011;65391;52.068;4.542;2024-01-25T00:15:51;18.7;;;5.2;;
76548;SDS011;65391;52.068;4.542;2024-01-25T00:18:15;18.7;;;5.2;;
76548;SDS011;65391;52.068;4.542;2024-01-25T00:20:40;18.7;;;5.2;;
76548;SDS011;65391;52.068;4.542;2024-01-25T00:23:05;16.7;;;4.2;;
76548;SDS011;65391;52.068;4.542;2024-01-25T00:25:30;16.7;;;4.2;;
76548;SDS011;65391;52.068;4.542;2024-01-25T00:27:55;16.7;;;4.2;;
76548;SDS011;65391;52.068;4.542;2024-01-25T00:30:20;16.7;;;4.2;;
76548;SDS011;65391;52.068;4.542;2024-01-25T00:32:45;16.4;;;4.2;;
76548;SDS011;65391;52.068;4.542;2024-01-25T00:35:11;16.4;;;4.2;;
76548;SDS011;65391;52.068;4.542;2024-01-25T00:37:36;16.4;;;4.2;;
76548;SDS011;65391;52.068;4.542;2024-01-25T00:40:01;16.4;;;4.2;;
76548;SDS011;65391;52.068;4.542;2024-01-25T00:42:25;16.1;;;4;;
76548;SDS011;65391;52.068;4.542;2024-01-25T00:44:51;16.1;;;4;;
76548;SDS011;65391;52.068;4.542;2024-01-25T00:47:16;16.1;;;4;;
76548;SDS011;65391;52.068;4.542;2024-01-25T00:49:41;16.1;;;4;;
76548;SDS011;65391;52.068;4.542;2024-01-25T00:52:06;16.1;;;4;;
76548;SDS011;65391;52.068;4.542;2024-01-25T00:54:31;13.1;;;3.7;;
76548;SDS011;65391;52.068;4.542;2024-01-25T00:56:56;13.1;;;3.7;;
76548;SDS011;65391;52.068;4.542;2024-01-25T00:59:21;13.1;;;3.7;;
76548;SDS011;65391;52.068;4.542;2024-01-25T01:01:46;13.1;;;3.7;;
76548;SDS011;65391;52.068;4.542;2024-01-25T01:04:11;16.7;;;4.2;;
76548;SDS011;65391;52.068;4.542;2024-01-25T01:06:36;16.7;;;4.2;;
76548;SDS011;65391;52.068;4.542;2024-01-25T01:09:00;16.7;;;4.2;;
76548;SDS011;65391;52.068;4.542;2024-01-25T01:11:25;16.7;;;4.2;;
76548;SDS011;65391;52.068;4.542;2024-01-25T01:13:53;17.9;;;5.7;;
76548;SDS011;65391;52.068;4.542;2024-01-25T01:16:15;17.9;;;5.7;;
76548;SDS011;65391;52.068;4.542;2024-01-25T01:18:40;17.9;;;5.7;;
76548;SDS011;65391;52.068;4.542;2024-01-25T01:21:05;17.9;;;5.7;;
76548;SDS011;65391;52.068;4.542;2024-01-25T01:23:30;12.2;;;3.2;;
76548;SDS011;65391;52.068;4.542;2024-01-25T01:25:55;12.2;;;3.2;;
76548;SDS011;65391;52.068;4.542;2024-01-25T01:28:20;12.2;;;3.2;;
76548;SDS011;65391;52.068;4.542;2024-01-25T01:30:45;12.2;;;3.2;;
76548;SDS011;65391;52.068;4.542;2024-01-25T01:33:10;14.3;;;4.9;;
76548;SDS011;65391;52.068;4.542;2024-01-25T01:35:35;14.3;;;4.9;;
76548;SDS011;65391;52.068;4.542;2024-01-25T01:38:00;14.3;;;4.9;;
76548;SDS011;65391;52.068;4.542;2024-01-25T01:40:25;14.3;;;4.9;;
76548;SDS011;65391;52.068;4.542;2024-01-25T01:42:50;19;;;5.7;;
76548;SDS011;65391;52.068;4.542;2024-01-25T01:45:15;19;;;5.7;;
76548;SDS011;65391;52.068;4.542;2024-01-25T01:47:40;19;;;5.7;;
76548;SDS011;65391;52.068;4.542;2024-01-25T01:50:06;19;;;5.7;;
76548;SDS011;65391;52.068;4.542;2024-01-25T01:52:30;14.1;;;4.4;;
76548;SDS011;65391;52.068;4.542;2024-01-25T01:54:55;14.1;;;4.4;;
76548;SDS011;65391;52.068;4.542;2024-01-25T01:57:20;14.1;;;4.4;;
76548;SDS011;65391;52.068;4.542;2024-01-25T01:59:45;14.1;;;4.4;;
76548;SDS011;65391;52.068;4.542;2024-01-25T02:02:10;14.1;;;4.4;;
76548;SDS011;65391;52.068;4.542;2024-01-25T02:04:35;16.5;;;4.5;;
76548;SDS011;65391;52.068;4.542;2024-01-25T02:07:01;16.5;;;4.5;;
76548;SDS011;65391;52.068;4.542;2024-01-25T02:09:25;16.5;;;4.5;;
76548;SDS011;65391;52.068;4.542;2024-01-25T02:11:58;16.5;;;4.5;;
76548;SDS011;65391;52.068;4.542;2024-01-25T02:14:15;15.8;;;4.3;;
76548;SDS011;65391;52.068;4.542;2024-01-25T02:16:40;15.8;;;4.3;;
76548;SDS011;65391;52.068;4.542;2024-01-25T02:19:05;15.8;;;4.3;;
76548;SDS011;65391;52.068;4.542;2024-01-25T02:21:30;15.8;;;4.3;;
76548;SDS011;65391;52.068;4.542;2024-01-25T02:23:55;15.1;;;5;;
76548;SDS011;65391;52.068;4.542;2024-01-25T02:26:20;15.1;;;5;;
76548;SDS011;65391;52.068;4.542;2024-01-25T02:28:45;15.1;;;5;;
76548;SDS011;65391;52.068;4.542;2024-01-25T02:31:10;15.1;;;5;;
76548;SDS011;65391;52.068;4.542;2024-01-25T02:33:35;16.1;;;4.3;;
76548;SDS011;65391;52.068;4.542;2024-01-25T02:36:00;16.1;;;4.3;;
76548;SDS011;65391;52.068;4.542;2024-01-25T02:38:25;16.1;;;4.3;;
76548;SDS011;65391;52.068;4.542;2024-01-25T02:40:50;16.1;;;4.3;;
76548;SDS011;65391;52.068;4.542;2024-01-25T02:43:15;13.2;;;4.1;;
76548;SDS011;65391;52.068;4.542;2024-01-25T02:45:40;13.2;;;4.1;;
76548;SDS011;65391;52.068;4.542;2024-01-25T02:48:06;13.2;;;4.1;;
76548;SDS011;65391;52.068;4.542;2024-01-25T02:50:31;13.2;;;4.1;;
76548;SDS011;65391;52.068;4.542;2024-01-25T02:52:56;15.8;;;3.8;;
76548;SDS011;65391;52.068;4.542;2024-01-25T02:55:20;15.8;;;3.8;;
76548;SDS011;65391;52.068;4.542;2024-01-25T02:57:45;15.8;;;3.8;;
76548;SDS011;65391;52.068;4.542;2024-01-25T03:00:11;15.8;;;3.8;;
76548;SDS011;65391;52.068;4.542;2024-01-25T03:02:36;12.7;;;4.7;;
76548;SDS011;65391;52.068;4.542;2024-01-25T03:05:03;12.7;;;4.7;;
76548;SDS011;65391;52.068;4.542;2024-01-25T03:07:25;12.7;;;4.7;;
76548;SDS011;65391;52.068;4.542;2024-01-25T03:09:50;12.7;;;4.7;;
76548;SDS011;65391;52.068;4.542;2024-01-25T03:12:15;12.7;;;4.7;;
76548;SDS011;65391;52.068;4.542;2024-01-25T03:14:40;15.7;;;3.6;;
76548;SDS011;65391;52.068;4.542;2024-01-25T03:17:09;15.7;;;3.6;;
76548;SDS011;65391;52.068;4.542;2024-01-25T03:19:30;15.7;;;3.6;;
76548;SDS011;65391;52.068;4.542;2024-01-25T03:21:55;15.7;;;3.6;;
76548;SDS011;65391;52.068;4.542;2024-01-25T03:24:20;14;;;4.6;;
76548;SDS011;65391;52.068;4.542;2024-01-25T03:26:45;14;;;4.6;;
76548;SDS011;65391;52.068;4.542;2024-01-25T03:29:10;14;;;4.6;;
76548;SDS011;65391;52.068;4.542;2024-01-25T03:31:35;14;;;4.6;;
76548;SDS011;65391;52.068;4.542;2024-01-25T03:34:00;15.7;;;4.3;;
76548;SDS011;65391;52.068;4.542;2024-01-25T03:36:25;15.7;;;4.3;;
76548;SDS011;65391;52.068;4.542;2024-01-25T03:38:50;15.7;;;4.3;;
76548;SDS011;65391;52.068;4.542;2024-01-25T03:41:18;15.7;;;4.3;;
76548;SDS011;65391;52.068;4.542;2024-01-25T03:43:40;17.8;;;5.7;;
76548;SDS011;65391;52.068;4.542;2024-01-25T03:46:05;17.8;;;5.7;;
76548;SDS011;65391;52.068;4.542;2024-01-25T03:48:30;17.8;;;5.7;;
76548;SDS011;65391;52.068;4.542;2024-01-25T03:50:55;17.8;;;5.7;;
76548;SDS011;65391;52.068;4.542;2024-01-25T03:53:23;13.3;;;4.2;;
76548;SDS011;65391;52.068;4.542;2024-01-25T03:55:45;13.3;;;4.2;;
76548;SDS011;65391;52.068;4.542;2024-01-25T03:58:10;13.3;;;4.2;;
76548;SDS011;65391;52.068;4.542;2024-01-25T04:00:35;13.3;;;4.2;;
76548;SDS011;65391;52.068;4.542;2024-01-25T04:03:00;15.8;;;4;;
76548;SDS011;65391;52.068;4.542;2024-01-25T04:05:25;15.8;;;4;;
76548;SDS011;65391;52.068;4.542;2024-01-25T04:07:50;15.8;;;4;;
76548;SDS011;65391;52.068;4.542;2024-01-25T04:10:15;15.8;;;4;;
76548;SDS011;65391;52.068;4.542;2024-01-25T04:12:40;15.8;;;4.5;;
76548;SDS011;65391;52.068;4.542;2024-01-25T04:15:06;15.8;;;4.5;;
76548;SDS011;65391;52.068;4.542;2024-01-25T04:17:30;15.8;;;4.5;;
76548;SDS011;65391;52.068;4.542;2024-01-25T04:19:55;15.8;;;4.5;;
76548;SDS011;65391;52.068;4.542;2024-01-25T04:22:20;15.8;;;4.5;;
76548;SDS011;65391;52.068;4.542;2024-01-25T04:24:45;15.7;;;4;;
76548;SDS011;65391;52.068;4.542;2024-01-25T04:27:10;15.7;;;4;;
76548;SDS011;65391;52.068;4.542;2024-01-25T04:29:38;15.7;;;4;;
76548;SDS011;65391;52.068;4.542;2024-01-25T04:32:00;15.7;;;4;;
76548;SDS011;65391;52.068;4.542;2024-01-25T04:34:25;13.8;;;4.5;;
76548;SDS011;65391;52.068;4.542;2024-01-25T04:36:50;13.8;;;4.5;;
76548;SDS011;65391;52.068;4.542;2024-01-25T04:39:15;13.8;;;4.5;;
76548;SDS011;65391;52.068;4.542;2024-01-25T04:41:40;13.8;;;4.5;;
76548;SDS011;65391;52.068;4.542;2024-01-25T04:44:05;15.7;;;4.1;;
76548;SDS011;65391;52.068;4.542;2024-01-25T04:46:30;15.7;;;4.1;;
76548;SDS011;65391;52.068;4.542;2024-01-25T04:48:55;15.7;;;4.1;;
76548;SDS011;65391;52.068;4.542;2024-01-25T04:51:22;15.7;;;4.1;;
76548;SDS011;65391;52.068;4.542;2024-01-25T04:53:45;16.5;;;4.2;;
76548;SDS011;65391;52.068;4.542;2024-01-25T04:56:10;16.5;;;4.2;;
76548;SDS011;65391;52.068;4.542;2024-01-25T04:58:35;16.5;;;4.2;;
76548;SDS011;65391;52.068;4.542;2024-01-25T05:01:00;16.5;;;4.2;;
76548;SDS011;65391;52.068;4.542;2024-01-25T05:03:28;12.2;;;4.2;;
76548;SDS011;65391;52.068;4.542;2024-01-25T05:05:50;12.2;;;4.2;;
76548;SDS011;65391;52.068;4.542;2024-01-25T05:08:15;12.2;;;4.2;;
76548;SDS011;65391;52.068;4.542;2024-01-25T05:10:40;12.2;;;4.2;;
76548;SDS011;65391;52.068;4.542;2024-01-25T05:13:05;15.3;;;3.8;;
76548;SDS011;65391;52.068;4.542;2024-01-25T05:15:33;15.3;;;3.8;;
76548;SDS011;65391;52.068;4.542;2024-01-25T05:17:55;15.3;;;3.8;;
76548;SDS011;65391;52.068;4.542;2024-01-25T05:20:20;15.3;;;3.8;;
76548;SDS011;65391;52.068;4.542;2024-01-25T05:22:45;15.4;;;4.3;;
76548;SDS011;65391;52.068;4.542;2024-01-25T05:25:10;15.4;;;4.3;;
76548;SDS011;65391;52.068;4.542;2024-01-25T05:27:35;15.4;;;4.3;;
76548;SDS011;65391;52.068;4.542;2024-01-25T05:30:00;15.4;;;4.3;;
76548;SDS011;65391;52.068;4.542;2024-01-25T05:32:25;15.4;;;4.3;;
76548;SDS011;65391;52.068;4.542;2024-01-25T05:34:50;15.3;;;4.4;;
76548;SDS011;65391;52.068;4.542;2024-01-25T05:37:15;15.3;;;4.4;;
76548;SDS011;65391;52.068;4.542;2024-01-25T05:39:40;15.3;;;4.4;;
76548;SDS011;65391;52.068;4.542;2024-01-25T05:42:06;15.3;;;4.4;;
76548;SDS011;65391;52.068;4.542;2024-01-25T05:44:30;13.1;;;4;;
76548;SDS011;65391;52.068;4.542;2024-01-25T05:46:55;13.1;;;4;;
76548;SDS011;65391;52.068;4.542;2024-01-25T05:49:20;13.1;;;4;;
76548;SDS011;65391;52.068;4.542;2024-01-25T05:51:45;13.1;;;4;;
76548;SDS011;65391;52.068;4.542;2024-01-25T05:54:10;14.4;;;3.7;;
76548;SDS011;65391;52.068;4.542;2024-01-25T05:56:35;14.4;;;3.7;;
76548;SDS011;65391;52.068;4.542;2024-01-25T05:59:00;14.4;;;3.7;;
76548;SDS011;65391;52.068;4.542;2024-01-25T06:01:25;14.4;;;3.7;;
76548;SDS011;65391;52.068;4.542;2024-01-25T06:03:50;12.3;;;3.9;;
76548;SDS011;65391;52.068;4.542;2024-01-25T06:06:15;12.3;;;3.9;;
76548;SDS011;65391;52.068;4.542;2024-01-25T06:08:40;12.3;;;3.9;;
76548;SDS011;65391;52.068;4.542;2024-01-25T06:11:05;12.3;;;3.9;;
76548;SDS011;65391;52.068;4.542;2024-01-25T06:13:31;14.9;;;4.2;;
76548;SDS011;65391;52.068;4.542;2024-01-25T06:15:55;14.9;;;4.2;;
76548;SDS011;65391;52.068;4.542;2024-01-25T06:18:20;14.9;;;4.2;;
76548;SDS011;65391;52.068;4.542;2024-01-25T06:20:45;14.9;;;4.2;;
76548;SDS011;65391;52.068;4.542;2024-01-25T06:23:10;14.8;;;4.2;;
76548;SDS011;65391;52.068;4.542;2024-01-25T06:25:35;14.8;;;4.2;;
76548;SDS011;65391;52.068;4.542;2024-01-25T06:28:03;14.8;;;4.2;;
76548;SDS011;65391;52.068;4.542;2024-01-25T06:30:25;14.8;;;4.2;;
76548;SDS011;65391;52.068;4.542;2024-01-25T06:32:50;13.2;;;4.2;;
76548;SDS011;65391;52.068;4.542;2024-01-25T06:35:15;13.2;;;4.2;;
76548;SDS011;65391;52.068;4.542;2024-01-25T06:37:40;13.2;;;4.2;;
76548;SDS011;65391;52.068;4.542;2024-01-25T06:40:06;13.2;;;4.2;;
76548;SDS011;65391;52.068;4.542;2024-01-25T06:42:30;13.2;;;4.2;;
76548;SDS011;65391;52.068;4.542;2024-01-25T06:44:55;11.5;;;3.7;;
76548;SDS011;65391;52.068;4.542;2024-01-25T06:47:20;11.5;;;3.7;;
76548;SDS011;65391;52.068;4.542;2024-01-25T06:49:45;11.5;;;3.7;;
76548;SDS011;65391;52.068;4.542;2024-01-25T06:52:10;11.5;;;3.7;;
76548;SDS011;65391;52.068;4.542;2024-01-25T06:54:35;12.1;;;4.2;;
76548;SDS011;65391;52.068;4.542;2024-01-25T06:57:00;12.1;;;4.2;;
76548;SDS011;65391;52.068;4.542;2024-01-25T06:59:25;12.1;;;4.2;;
76548;SDS011;65391;52.068;4.542;2024-01-25T07:01:50;12.1;;;4.2;;
76548;SDS011;65391;52.068;4.542;2024-01-25T07:04:18;14.1;;;3.8;;
76548;SDS011;65391;52.068;4.542;2024-01-25T07:06:40;14.1;;;3.8;;
76548;SDS011;65391;52.068;4.542;2024-01-25T07:09:05;14.1;;;3.8;;
76548;SDS011;65391;52.068;4.542;2024-01-25T07:11:30;14.1;;;3.8;;
76548;SDS011;65391;52.068;4.542;2024-01-25T07:13:55;12.7;;;4.4;;
76548;SDS011;65391;52.068;4.542;2024-01-25T07:16:20;12.7;;;4.4;;
76548;SDS011;65391;52.068;4.542;2024-01-25T07:18:45;12.7;;;4.4;;
76548;SDS011;65391;52.068;4.542;2024-01-25T07:21:10;12.7;;;4.4;;
76548;SDS011;65391;52.068;4.542;2024-01-25T07:23:35;12.8;;;3.8;;
76548;SDS011;65391;52.068;4.542;2024-01-25T07:26:00;12.8;;;3.8;;
76548;SDS011;65391;52.068;4.542;2024-01-25T07:28:25;12.8;;;3.8;;
76548;SDS011;65391;52.068;4.542;2024-01-25T07:30:50;12.8;;;3.8;;
76548;SDS011;65391;52.068;4.542;2024-01-25T07:33:15;13.3;;;5;;
76548;SDS011;65391;52.068;4.542;2024-01-25T07:35:40;13.3;;;5;;
76548;SDS011;65391;52.068;4.542;2024-01-25T07:38:05;13.3;;;5;;
76548;SDS011;65391;52.068;4.542;2024-01-25T07:40:30;13.3;;;5;;
76548;SDS011;65391;52.068;4.542;2024-01-25T07:42:55;11.4;;;4.1;;
76548;SDS011;65391;52.068;4.542;2024-01-25T07:45:20;11.4;;;4.1;;
76548;SDS011;65391;52.068;4.542;2024-01-25T07:47:45;11.4;;;4.1;;
76548;SDS011;65391;52.068;4.542;2024-01-25T07:50:11;11.4;;;4.1;;
76548;SDS011;65391;52.068;4.542;2024-01-25T07:52:35;11.4;;;4.1;;
76548;SDS011;65391;52.068;4.542;2024-01-25T07:55:00;14.9;;;5.2;;
76548;SDS011;65391;52.068;4.542;2024-01-25T07:57:25;14.9;;;5.2;;
76548;SDS011;65391;52.068;4.542;2024-01-25T07:59:50;14.9;;;5.2;;
76548;SDS011;65391;52.068;4.542;2024-01-25T08:02:15;14.9;;;5.2;;
76548;SDS011;65391;52.068;4.542;2024-01-25T08:04:40;12.1;;;4.5;;
76548;SDS011;65391;52.068;4.542;2024-01-25T08:07:05;12.1;;;4.5;;
76548;SDS011;65391;52.068;4.542;2024-01-25T08:09:30;12.1;;;4.5;;
76548;SDS011;65391;52.068;4.542;2024-01-25T08:11:55;12.1;;;4.5;;
76548;SDS011;65391;52.068;4.542;2024-01-25T08:14:20;12.8;;;4.1;;
76548;SDS011;65391;52.068;4.542;2024-01-25T08:16:46;12.8;;;4.1;;
76548;SDS011;65391;52.068;4.542;2024-01-25T08:19:10;12.8;;;4.1;;
76548;SDS011;65391;52.068;4.542;2024-01-25T08:21:35;12.8;;;4.1;;
76548;SDS011;65391;52.068;4.542;2024-01-25T08:24:00;12.1;;;4.9;;
76548;SDS011;65391;52.068;4.542;2024-01-25T08:26:25;12.1;;;4.9;;
76548;SDS011;65391;52.068;4.542;2024-01-25T08:28:50;12.1;;;4.9;;
76548;SDS011;65391;52.068;4.542;2024-01-25T08:31:16;12.1;;;4.9;;
76548;SDS011;65391;52.068;4.542;2024-01-25T08:33:40;14.8;;;6;;
76548;SDS011;65391;52.068;4.542;2024-01-25T08:36:06;14.8;;;6;;
76548;SDS011;65391;52.068;4.542;2024-01-25T08:38:30;14.8;;;6;;
76548;SDS011;65391;52.068;4.542;2024-01-25T08:40:55;14.8;;;6;;
76548;SDS011;65391;52.068;4.542;2024-01-25T08:43:20;14.7;;;5.8;;
76548;SDS011;65391;52.068;4.542;2024-01-25T08:45:45;14.7;;;5.8;;
76548;SDS011;65391;52.068;4.542;2024-01-25T08:48:11;14.7;;;5.8;;
76548;SDS011;65391;52.068;4.542;2024-01-25T08:50:36;14.7;;;5.8;;
76548;SDS011;65391;52.068;4.542;2024-01-25T08:53:01;15.7;;;6.1;;
76548;SDS011;65391;52.068;4.542;2024-01-25T08:55:25;15.7;;;6.1;;
76548;SDS011;65391;52.068;4.542;2024-01-25T08:57:50;15.7;;;6.1;;
76548;SDS011;65391;52.068;4.542;2024-01-25T09:00:16;15.7;;;6.1;;
76548;SDS011;65391;52.068;4.542;2024-01-25T09:02:40;15.7;;;6.1;;
76548;SDS011;65391;52.068;4.542;2024-01-25T09:05:06;13.7;;;5.7;;
76548;SDS011;65391;52.068;4.542;2024-01-25T09:07:30;13.7;;;5.7;;
76548;SDS011;65391;52.068;4.542;2024-01-25T09:09:55;13.7;;;5.7;;
76548;SDS011;65391;52.068;4.542;2024-01-25T09:12:20;13.7;;;5.7;;
76548;SDS011;65391;52.068;4.542;2024-01-25T09:14:45;15.1;;;5.1;;
76548;SDS011;65391;52.068;4.542;2024-01-25T09:17:11;15.1;;;5.1;;
76548;SDS011;65391;52.068;4.542;2024-01-25T09:19:38;15.1;;;5.1;;
76548;SDS011;65391;52.068;4.542;2024-01-25T09:22:02;15.1;;;5.1;;
76548;SDS011;65391;52.068;4.542;2024-01-25T09:24:25;16.2;;;5.7;;
76548;SDS011;65391;52.068;4.542;2024-01-25T09:26:51;16.2;;;5.7;;
76548;SDS011;65391;52.068;4.542;2024-01-25T09:29:15;16.2;;;5.7;;
76548;SDS011;65391;52.068;4.542;2024-01-25T09:31:43;16.2;;;5.7;;
76548;SDS011;65391;52.068;4.542;2024-01-25T09:34:06;17.6;;;7.3;;
76548;SDS011;65391;52.068;4.542;2024-01-25T09:36:30;17.6;;;7.3;;
76548;SDS011;65391;52.068;4.542;2024-01-25T09:38:55;17.6;;;7.3;;
76548;SDS011;65391;52.068;4.542;2024-01-25T09:41:20;17.6;;;7.3;;
76548;SDS011;65391;52.068;4.542;2024-01-25T09:43:46;14.1;;;7.2;;
76548;SDS011;65391;52.068;4.542;2024-01-25T09:46:12;14.1;;;7.2;;
76548;SDS011;65391;52.068;4.542;2024-01-25T09:48:35;14.1;;;7.2;;
76548;SDS011;65391;52.068;4.542;2024-01-25T09:51:00;14.1;;;7.2;;
76548;SDS011;65391;52.068;4.542;2024-01-25T09:53:28;14.2;;;6.4;;
76548;SDS011;65391;52.068;4.542;2024-01-25T09:55:56;14.2;;;6.4;;
76548;SDS011;65391;52.068;4.542;2024-01-25T09:58:15;14.2;;;6.4;;
76548;SDS011;65391;52.068;4.542;2024-01-25T10:00:41;14.2;;;6.4;;
76548;SDS011;65391;52.068;4.542;2024-01-25T10:03:06;17.9;;;7.1;;
76548;SDS011;65391;52.068;4.542;2024-01-25T10:05:30;17.9;;;7.1;;
76548;SDS011;65391;52.068;4.542;2024-01-25T10:07:56;17.9;;;7.1;;
76548;SDS011;65391;52.068;4.542;2024-01-25T10:10:20;17.9;;;7.1;;
76548;SDS011;65391;52.068;4.542;2024-01-25T10:12:45;17.9;;;7.1;;
76548;SDS011;65391;52.068;4.542;2024-01-25T10:15:11;14.8;;;7.6;;
76548;SDS011;65391;52.068;4.542;2024-01-25T10:17:36;14.8;;;7.6;;
76548;SDS011;65391;52.068;4.542;2024-01-25T10:20:00;14.8;;;7.6;;
76548;SDS011;65391;52.068;4.542;2024-01-25T10:22:26;14.8;;;7.6;;
76548;SDS011;65391;52.068;4.542;2024-01-25T10:24:50;13.9;;;4.8;;
76548;SDS011;65391;52.068;4.542;2024-01-25T10:27:16;13.9;;;4.8;;
76548;SDS011;65391;52.068;4.542;2024-01-25T10:29:40;13.9;;;4.8;;
76548;SDS011;65391;52.068;4.542;2024-01-25T10:32:06;13.9;;;4.8;;
76548;SDS011;65391;52.068;4.542;2024-01-25T10:34:31;13.2;;;5.5;;
76548;SDS011;65391;52.068;4.542;2024-01-25T10:36:55;13.2;;;5.5;;
76548;SDS011;65391;52.068;4.542;2024-01-25T10:39:21;13.2;;;5.5;;
76548;SDS011;65391;52.068;4.542;2024-01-25T10:41:45;13.2;;;5.5;;
76548;SDS011;65391;52.068;4.542;2024-01-25T10:44:10;16.7;;;5;;
76548;SDS011;65391;52.068;4.542;2024-01-25T10:46:36;16.7;;;5;;
76548;SDS011;65391;52.068;4.542;2024-01-25T10:49:00;16.7;;;5;;
76548;SDS011;65391;52.068;4.542;2024-01-25T10:51:28;16.7;;;5;;
76548;SDS011;65391;52.068;4.542;2024-01-25T10:53:50;14;;;5.6;;
76548;SDS011;65391;52.068;4.542;2024-01-25T10:56:15;14;;;5.6;;
76548;SDS011;65391;52.068;4.542;2024-01-25T10:58:41;14;;;5.6;;
76548;SDS011;65391;52.068;4.542;2024-01-25T11:01:08;14;;;5.6;;
76548;SDS011;65391;52.068;4.542;2024-01-25T11:03:31;14.8;;;5.9;;
76548;SDS011;65391;52.068;4.542;2024-01-25T11:06:05;14.8;;;5.9;;
76548;SDS011;65391;52.068;4.542;2024-01-25T11:08:21;14.8;;;5.9;;
76548;SDS011;65391;52.068;4.542;2024-01-25T11:10:48;14.8;;;5.9;;
76548;SDS011;65391;52.068;4.542;2024-01-25T11:13:13;14.8;;;5.9;;
76548;SDS011;65391;52.068;4.542;2024-01-25T11:15:38;17.8;;;6.3;;
76548;SDS011;65391;52.068;4.542;2024-01-25T11:18:01;17.8;;;6.3;;
76548;SDS011;65391;52.068;4.542;2024-01-25T11:20:27;17.8;;;6.3;;
76548;SDS011;65391;52.068;4.542;2024-01-25T11:22:58;17.8;;;6.3;;
76548;SDS011;65391;52.068;4.542;2024-01-25T11:25:20;14.2;;;5.4;;
76548;SDS011;65391;52.068;4.542;2024-01-25T11:27:40;14.2;;;5.4;;
76548;SDS011;65391;52.068;4.542;2024-01-25T11:30:07;14.2;;;5.4;;
76548;SDS011;65391;52.068;4.542;2024-01-25T11:32:31;14.2;;;5.4;;
76548;SDS011;65391;52.068;4.542;2024-01-25T11:34:58;18.2;;;6.5;;
76548;SDS011;65391;52.068;4.542;2024-01-25T11:37:22;18.2;;;6.5;;
76548;SDS011;65391;52.068;4.542;2024-01-25T11:39:46;18.2;;;6.5;;
76548;SDS011;65391;52.068;4.542;2024-01-25T11:42:11;18.2;;;6.5;;
76548;SDS011;65391;52.068;4.542;2024-01-25T11:44:35;18.2;;;6.3;;
76548;SDS011;65391;52.068;4.542;2024-01-25T11:47:01;18.2;;;6.3;;
76548;SDS011;65391;52.068;4.542;2024-01-25T11:49:26;18.2;;;6.3;;
76548;SDS011;65391;52.068;4.542;2024-01-25T11:51:51;18.2;;;6.3;;
76548;SDS011;65391;52.068;4.542;2024-01-25T11:54:16;19;;;7.1;;
76548;SDS011;65391;52.068;4.542;2024-01-25T11:56:41;19;;;7.1;;
76548;SDS011;65391;52.068;4.542;2024-01-25T11:59:06;19;;;7.1;;
76548;SDS011;65391;52.068;4.542;2024-01-25T12:01:31;19;;;7.1;;
76548;SDS011;65391;52.068;4.542;2024-01-25T12:03:56;18.6;;;6.3;;
76548;SDS011;65391;52.068;4.542;2024-01-25T12:06:21;18.6;;;6.3;;
76548;SDS011;65391;52.068;4.542;2024-01-25T12:08:46;18.6;;;6.3;;
76548;SDS011;65391;52.068;4.542;2024-01-25T12:11:12;18.6;;;6.3;;
76548;SDS011;65391;52.068;4.542;2024-01-25T12:13:38;20.4;;;8.4;;
76548;SDS011;65391;52.068;4.542;2024-01-25T12:16:01;20.4;;;8.4;;
76548;SDS011;65391;52.068;4.542;2024-01-25T12:18:26;20.4;;;8.4;;
76548;SDS011;65391;52.068;4.542;2024-01-25T12:20:51;20.4;;;8.4;;
76548;SDS011;65391;52.068;4.542;2024-01-25T12:23:16;20.4;;;8.4;;
76548;SDS011;65391;52.068;4.542;2024-01-25T12:25:41;15.5;;;7.3;;
76548;SDS011;65391;52.068;4.542;2024-01-25T12:28:06;15.5;;;7.3;;
76548;SDS011;65391;52.068;4.542;2024-01-25T12:30:31;15.5;;;7.3;;
76548;SDS011;65391;52.068;4.542;2024-01-25T12:32:56;15.5;;;7.3;;
76548;SDS011;65391;52.068;4.542;2024-01-25T12:35:21;19.6;;;7.5;;
76548;SDS011;65391;52.068;4.542;2024-01-25T12:37:46;19.6;;;7.5;;
76548;SDS011;65391;52.068;4.542;2024-01-25T12:40:11;19.6;;;7.5;;
76548;SDS011;65391;52.068;4.542;2024-01-25T12:42:36;19.6;;;7.5;;
76548;SDS011;65391;52.068;4.542;2024-01-25T12:45:01;18.6;;;6.3;;
76548;SDS011;65391;52.068;4.542;2024-01-25T12:47:26;18.6;;;6.3;;
76548;SDS011;65391;52.068;4.542;2024-01-25T12:49:51;18.6;;;6.3;;
76548;SDS011;65391;52.068;4.542;2024-01-25T12:52:16;18.6;;;6.3;;
76548;SDS011;65391;52.068;4.542;2024-01-25T12:54:41;18.4;;;5.9;;
76548;SDS011;65391;52.068;4.542;2024-01-25T12:57:06;18.4;;;5.9;;
76548;SDS011;65391;52.068;4.542;2024-01-25T12:59:31;18.4;;;5.9;;
76548;SDS011;65391;52.068;4.542;2024-01-25T13:01:56;18.4;;;5.9;;
76548;SDS011;65391;52.068;4.542;2024-01-25T13:04:21;18.4;;;7.5;;
76548;SDS011;65391;52.068;4.542;2024-01-25T13:06:46;18.4;;;7.5;;
76548;SDS011;65391;52.068;4.542;2024-01-25T13:09:11;18.4;;;7.5;;
76548;SDS011;65391;52.068;4.542;2024-01-25T13:11:38;18.4;;;7.5;;
76548;SDS011;65391;52.068;4.542;2024-01-25T13:14:01;14.4;;;6.2;;
76548;SDS011;65391;52.068;4.542;2024-01-25T13:16:26;14.4;;;6.2;;
76548;SDS011;65391;52.068;4.542;2024-01-25T13:18:51;14.4;;;6.2;;
76548;SDS011;65391;52.068;4.542;2024-01-25T13:21:16;14.4;;;6.2;;
76548;SDS011;65391;52.068;4.542;2024-01-25T13:23:41;19.2;;;7.4;;
76548;SDS011;65391;52.068;4.542;2024-01-25T13:26:06;19.2;;;7.4;;
76548;SDS011;65391;52.068;4.542;2024-01-25T13:28:31;19.2;;;7.4;;
76548;SDS011;65391;52.068;4.542;2024-01-25T13:30:56;19.2;;;7.4;;
76548;SDS011;65391;52.068;4.542;2024-01-25T13:33:21;19.2;;;7.4;;
76548;SDS011;65391;52.068;4.542;2024-01-25T13:35:46;19.4;;;7.3;;
76548;SDS011;65391;52.068;4.542;2024-01-25T13:38:11;19.4;;;7.3;;
76548;SDS011;65391;52.068;4.542;2024-01-25T13:40:38;19.4;;;7.3;;
76548;SDS011;65391;52.068;4.542;2024-01-25T13:43:01;19.4;;;7.3;;
76548;SDS011;65391;52.068;4.542;2024-01-25T13:45:26;19.3;;;7.6;;
76548;SDS011;65391;52.068;4.542;2024-01-25T13:47:51;19.3;;;7.6;;
76548;SDS011;65391;52.068;4.542;2024-01-25T13:50:16;19.3;;;7.6;;
76548;SDS011;65391;52.068;4.542;2024-01-25T13:52:43;19.3;;;7.6;;
76548;SDS011;65391;52.068;4.542;2024-01-25T13:55:06;19.5;;;7.8;;
76548;SDS011;65391;52.068;4.542;2024-01-25T13:57:31;19.5;;;7.8;;
76548;SDS011;65391;52.068;4.542;2024-01-25T13:59:56;19.5;;;7.8;;
76548;SDS011;65391;52.068;4.542;2024-01-25T14:02:21;19.5;;;7.8;;
76548;SDS011;65391;52.068;4.542;2024-01-25T14:04:46;15.5;;;7.3;;
76548;SDS011;65391;52.068;4.542;2024-01-25T14:07:11;15.5;;;7.3;;
76548;SDS011;65391;52.068;4.542;2024-01-25T14:09:36;15.5;;;7.3;;
76548;SDS011;65391;52.068;4.542;2024-01-25T14:12:01;15.5;;;7.3;;
76548;SDS011;65391;52.068;4.542;2024-01-25T14:14:26;18.4;;;6.6;;
76548;SDS011;65391;52.068;4.542;2024-01-25T14:16:51;18.4;;;6.6;;
76548;SDS011;65391;52.068;4.542;2024-01-25T14:19:16;18.4;;;6.6;;
76548;SDS011;65391;52.068;4.542;2024-01-25T14:21:41;18.4;;;6.6;;
76548;SDS011;65391;52.068;4.542;2024-01-25T14:24:06;17.3;;;6.1;;
76548;SDS011;65391;52.068;4.542;2024-01-25T14:26:31;17.3;;;6.1;;
76548;SDS011;65391;52.068;4.542;2024-01-25T14:28:56;17.3;;;6.1;;
76548;SDS011;65391;52.068;4.542;2024-01-25T14:31:21;17.3;;;6.1;;
76548;SDS011;65391;52.068;4.542;2024-01-25T14:33:46;15.5;;;8.6;;
76548;SDS011;65391;52.068;4.542;2024-01-25T14:36:11;15.5;;;8.6;;
76548;SDS011;65391;52.068;4.542;2024-01-25T14:38:36;15.5;;;8.6;;
76548;SDS011;65391;52.068;4.542;2024-01-25T14:41:01;15.5;;;8.6;;
76548;SDS011;65391;52.068;4.542;2024-01-25T14:43:26;15.5;;;8.6;;
76548;SDS011;65391;52.068;4.542;2024-01-25T14:45:52;23.2;;;14.4;;
76548;SDS011;65391;52.068;4.542;2024-01-25T14:48:16;23.2;;;14.4;;
76548;SDS011;65391;52.068;4.542;2024-01-25T14:50:41;23.2;;;14.4;;